Time,TemperatureF,DewpointF,PressureIn,WindDirection,WindDirectionDegrees,WindSpeedMPH,WindSpeedGustMPH,Humidity,HourlyPrecipIn,Conditions,Clouds,dailyrainin,SoftwareType,DateUTC
2013-02-11 00:01:00,66.7,64.9,29.98,NNW,333,1.0,4.0,94,0.00,,,0.00,meteohub,2013-02-11 06:01:00,
2013-02-11 00:06:00,66.7,64.9,29.97,NNW,333,0.0,4.0,94,0.00,,,0.00,meteohub,2013-02-11 06:06:00,
2013-02-11 00:11:00,66.7,64.9,29.98,NNW,333,0.0,3.0,94,0.00,,,0.00,meteohub,2013-02-11 06:11:00,
2013-02-11 00:16:00,66.7,65.3,29.97,NNW,333,0.0,2.0,95,0.00,,,0.00,meteohub,2013-02-11 06:16:00,
2013-02-11 00:21:00,67.3,65.8,29.97,NNW,333,5.0,5.0,95,0.00,,,0.00,meteohub,2013-02-11 06:21:00,
2013-02-11 00:26:00,68.2,66.9,29.97,NNW,333,0.0,5.0,96,0.00,,,0.00,meteohub,2013-02-11 06:26:00,
2013-02-11 00:31:00,68.5,67.3,29.97,NNW,333,0.0,5.0,96,0.00,,,0.00,meteohub,2013-02-11 06:31:00,
2013-02-11 00:36:00,68.9,67.6,29.97,NNW,333,0.0,5.0,96,0.00,,,0.00,meteohub,2013-02-11 06:36:00,
2013-02-11 00:41:00,69.3,68.0,29.97,South,188,1.0,3.0,96,0.00,,,0.00,meteohub,2013-02-11 06:41:00,
2013-02-11 00:46:00,69.3,67.8,29.97,South,188,0.0,3.0,95,0.00,,,0.00,meteohub,2013-02-11 06:46:00,
2013-02-11 00:51:00,69.3,67.8,29.97,South,188,0.0,3.0,95,0.00,,,0.00,meteohub,2013-02-11 06:51:00,
2013-02-11 00:56:00,69.3,67.8,29.97,South,188,0.0,2.0,95,0.00,,,0.00,meteohub,2013-02-11 06:56:00,
2013-02-11 01:01:00,69.4,68.0,29.97,South,188,0.0,2.0,95,0.00,,,0.00,meteohub,2013-02-11 07:01:00,
2013-02-11 01:06:00,69.6,68.4,29.98,South,188,0.0,2.0,96,0.00,,,0.00,meteohub,2013-02-11 07:06:00,
2013-02-11 01:11:00,69.8,68.4,29.97,South,188,1.0,3.0,95,0.00,,,0.00,meteohub,2013-02-11 07:11:00,
2013-02-11 01:16:00,70.2,68.9,29.96,South,185,0.0,3.0,96,0.00,,,0.00,meteohub,2013-02-11 07:16:00,
2013-02-11 01:21:00,70.3,69.1,29.96,SSE,160,4.0,5.0,96,0.00,,,0.00,meteohub,2013-02-11 07:21:00,
2013-02-11 01:26:00,70.5,69.1,29.96,South,175,1.0,6.0,95,0.00,,,0.00,meteohub,2013-02-11 07:26:00,
2013-02-11 01:31:00,70.5,69.1,29.96,South,175,2.0,6.0,95,0.00,,,0.00,meteohub,2013-02-11 07:31:00,
2013-02-11 01:36:00,70.5,69.1,29.96,South,175,3.0,6.0,95,0.00,,,0.00,meteohub,2013-02-11 07:36:00,
2013-02-11 01:41:00,70.5,69.1,29.96,South,175,4.0,5.0,95,0.00,,,0.00,meteohub,2013-02-11 07:41:00,
2013-02-11 01:46:00,70.5,69.1,29.97,South,175,3.0,6.0,95,0.00,,,0.00,meteohub,2013-02-11 07:46:00,
2013-02-11 01:51:00,70.5,68.7,29.97,South,175,2.0,6.0,94,0.00,,,0.00,meteohub,2013-02-11 07:51:00,
2013-02-11 01:56:00,70.7,68.9,29.97,South,175,3.0,6.0,94,0.00,,,0.00,meteohub,2013-02-11 07:56:00,
2013-02-11 02:01:00,70.7,68.9,29.96,SSW,195,2.0,5.0,94,0.00,,,0.00,meteohub,2013-02-11 08:01:00,
2013-02-11 02:06:00,70.9,69.1,29.96,SSW,195,2.0,5.0,94,0.00,,,0.00,meteohub,2013-02-11 08:06:00,
2013-02-11 02:11:00,70.9,69.1,29.96,SSW,192,2.0,5.0,94,0.00,,,0.00,meteohub,2013-02-11 08:11:00,
2013-02-11 02:16:00,70.7,68.9,29.96,SSW,192,1.0,5.0,94,0.00,,,0.00,meteohub,2013-02-11 08:16:00,
2013-02-11 02:21:00,70.7,68.9,29.96,South,186,2.0,5.0,94,0.00,,,0.00,meteohub,2013-02-11 08:21:00,
2013-02-11 02:26:00,70.5,68.7,29.96,South,186,1.0,5.0,94,0.00,,,0.00,meteohub,2013-02-11 08:26:00,
2013-02-11 02:31:00,70.5,68.7,29.96,South,186,0.0,5.0,94,0.00,,,0.00,meteohub,2013-02-11 08:31:00,
2013-02-11 02:36:00,70.5,68.7,29.96,South,186,1.0,5.0,94,0.00,,,0.00,meteohub,2013-02-11 08:36:00,
2013-02-11 02:42:00,70.5,68.7,29.96,South,186,0.0,5.0,94,0.00,,,0.00,meteohub,2013-02-11 08:42:00,
2013-02-11 02:47:00,70.5,68.7,29.97,South,186,0.0,3.0,94,0.00,,,0.00,meteohub,2013-02-11 08:47:00,
2013-02-11 02:52:00,70.5,68.7,29.96,South,186,1.0,3.0,94,0.00,,,0.00,meteohub,2013-02-11 08:52:00,
2013-02-11 02:57:00,70.5,68.7,29.96,South,186,4.0,4.0,94,0.00,,,0.00,meteohub,2013-02-11 08:57:00,
2013-02-11 03:02:00,70.5,68.7,29.97,SSW,195,3.0,5.0,94,0.00,,,0.00,meteohub,2013-02-11 09:02:00,
2013-02-11 03:07:00,70.5,69.1,29.96,SSW,195,3.0,6.0,95,0.00,,,0.00,meteohub,2013-02-11 09:07:00,
2013-02-11 03:12:00,70.5,69.1,29.96,SSW,195,1.0,6.0,95,0.00,,,0.00,meteohub,2013-02-11 09:12:00,
2013-02-11 03:17:00,70.5,69.1,29.96,South,188,3.0,5.0,95,0.00,,,0.00,meteohub,2013-02-11 09:17:00,
2013-02-11 03:22:00,70.5,69.1,29.96,South,187,1.0,4.0,95,0.00,,,0.00,meteohub,2013-02-11 09:22:00,
2013-02-11 03:27:00,70.5,69.1,29.96,South,187,1.0,5.0,95,0.00,,,0.00,meteohub,2013-02-11 09:27:00,
2013-02-11 03:32:00,70.5,69.1,29.96,South,171,3.0,6.0,95,0.00,,,0.00,meteohub,2013-02-11 09:32:00,
2013-02-11 03:37:00,70.5,69.1,29.95,South,169,4.0,7.0,95,0.00,,,0.00,meteohub,2013-02-11 09:37:00,
2013-02-11 03:42:00,70.3,68.9,29.96,South,185,2.0,7.0,95,0.00,,,0.00,meteohub,2013-02-11 09:42:00,
2013-02-11 03:47:00,70.3,68.9,29.95,South,174,4.0,6.0,95,0.00,,,0.00,meteohub,2013-02-11 09:47:00,
2013-02-11 03:52:00,70.3,68.9,29.95,South,182,3.0,7.0,95,0.00,,,0.00,meteohub,2013-02-11 09:52:00,
2013-02-11 03:57:00,70.5,69.1,29.95,SSW,199,2.0,7.0,95,0.00,,,0.00,meteohub,2013-02-11 09:57:00,
2013-02-11 04:02:00,70.3,68.9,29.96,SSW,201,2.0,8.0,95,0.00,,,0.00,meteohub,2013-02-11 10:02:00,
2013-02-11 04:07:00,70.3,68.9,29.96,SSW,200,2.0,8.0,95,0.00,,,0.00,meteohub,2013-02-11 10:07:00,
2013-02-11 04:12:00,70.3,68.9,29.96,SSW,200,4.0,8.0,95,0.00,,,0.00,meteohub,2013-02-11 10:12:00,
2013-02-11 04:17:00,70.3,68.9,29.96,SW,223,4.0,7.0,95,0.00,,,0.00,meteohub,2013-02-11 10:17:00,
2013-02-11 04:22:00,70.3,68.9,29.96,SW,222,3.0,9.0,95,0.00,,,0.00,meteohub,2013-02-11 10:22:00,
2013-02-11 04:27:00,70.3,68.9,29.97,SW,220,6.0,9.0,95,0.00,,,0.00,meteohub,2013-02-11 10:27:00,
2013-02-11 04:32:00,70.3,68.9,29.97,SW,220,2.0,9.0,95,0.00,,,0.00,meteohub,2013-02-11 10:32:00,
2013-02-11 04:36:00,70.3,68.9,29.97,SW,219,4.0,7.0,95,0.00,,,0.00,meteohub,2013-02-11 10:36:00,
2013-02-11 04:42:00,70.3,68.9,29.97,SSW,205,4.0,6.0,95,0.00,,,0.00,meteohub,2013-02-11 10:42:00,
2013-02-11 04:46:00,70.3,68.9,29.98,WSW,252,5.0,8.0,95,0.00,,,0.00,meteohub,2013-02-11 10:46:00,
2013-02-11 04:51:00,67.5,63.9,29.99,NW,304,16.0,19.0,88,0.00,,,0.00,meteohub,2013-02-11 10:51:00,
2013-02-11 04:56:00,65.1,62.4,29.99,NW,304,12.0,19.0,91,0.00,,,0.00,meteohub,2013-02-11 10:56:00,
2013-02-11 05:02:00,64.6,62.2,30.00,NNW,338,13.0,19.0,92,0.00,,,0.00,meteohub,2013-02-11 11:02:00,
2013-02-11 05:07:00,63.7,61.0,30.00,North,355,11.0,19.0,91,0.00,,,0.00,meteohub,2013-02-11 11:07:00,
2013-02-11 05:12:00,63.0,60.6,30.01,NW,325,12.0,19.0,92,0.00,,,0.00,meteohub,2013-02-11 11:12:00,
2013-02-11 05:17:00,62.4,60.1,30.01,North,5,6.0,19.0,92,0.00,,,0.00,meteohub,2013-02-11 11:17:00,
2013-02-11 05:22:00,61.9,59.5,30.02,NNW,335,8.0,19.0,92,0.00,,,0.00,meteohub,2013-02-11 11:22:00,
2013-02-11 05:27:00,61.2,58.8,30.02,NNW,343,13.0,17.0,92,0.00,,,0.00,meteohub,2013-02-11 11:27:00,
2013-02-11 05:32:00,60.4,57.6,30.02,North,5,12.0,17.0,90,0.00,,,0.00,meteohub,2013-02-11 11:32:00,
2013-02-11 05:37:00,59.7,56.8,30.03,North,351,7.0,20.0,90,0.00,,,0.00,meteohub,2013-02-11 11:37:00,
2013-02-11 05:42:00,59.5,56.8,30.04,North,9,5.0,20.0,91,0.00,,,0.00,meteohub,2013-02-11 11:42:00,
2013-02-11 05:47:00,59.5,57.2,30.04,North,0,10.0,18.0,92,0.00,,,0.00,meteohub,2013-02-11 11:47:00,
2013-02-11 05:52:00,59.5,57.2,30.04,NNW,330,5.0,18.0,92,0.00,,,0.00,meteohub,2013-02-11 11:52:00,
2013-02-11 05:57:00,59.4,57.0,30.05,North,355,3.0,15.0,92,0.00,,,0.00,meteohub,2013-02-11 11:57:00,
2013-02-11 06:02:00,59.4,57.4,30.05,NNW,344,4.0,15.0,93,0.00,,,0.00,meteohub,2013-02-11 12:02:00,
2013-02-11 06:07:00,59.5,57.6,30.06,NNW,331,4.0,12.0,93,0.00,,,0.00,meteohub,2013-02-11 12:07:00,
2013-02-11 06:12:00,59.4,57.4,30.06,NW,322,4.0,13.0,93,0.00,,,0.00,meteohub,2013-02-11 12:12:00,
2013-02-11 06:17:00,59.4,57.4,30.06,NNE,28,3.0,13.0,93,0.00,,,0.00,meteohub,2013-02-11 12:17:00,
2013-02-11 06:22:00,59.4,57.4,30.06,North,355,1.0,12.0,93,0.00,,,0.00,meteohub,2013-02-11 12:22:00,
2013-02-11 06:27:00,59.4,57.0,30.07,NNE,26,4.0,11.0,92,0.00,,,0.00,meteohub,2013-02-11 12:27:00,
2013-02-11 06:32:00,59.2,56.8,30.06,NNE,32,10.0,11.0,92,0.00,,,0.00,meteohub,2013-02-11 12:32:00,
2013-02-11 06:37:00,59.0,56.7,30.06,North,355,8.0,11.0,92,0.00,,,0.00,meteohub,2013-02-11 12:37:00,
2013-02-11 06:42:00,59.0,56.3,30.06,North,355,8.0,11.0,91,0.00,,,0.00,meteohub,2013-02-11 12:42:00,
2013-02-11 06:47:00,59.2,56.5,30.06,NNE,17,5.0,11.0,91,0.00,,,0.00,meteohub,2013-02-11 12:47:00,
2013-02-11 06:52:00,59.0,56.3,30.06,NNE,15,2.0,11.0,91,0.00,,,0.00,meteohub,2013-02-11 12:52:00,
2013-02-11 06:57:00,58.8,56.1,30.07,North,355,6.0,11.0,91,0.00,,,0.00,meteohub,2013-02-11 12:57:00,
2013-02-11 07:02:00,58.8,56.1,30.07,NNE,27,5.0,11.0,91,0.00,,,0.00,meteohub,2013-02-11 13:02:00,
2013-02-11 07:07:00,58.6,55.9,30.08,NE,55,6.0,9.0,91,0.00,,,0.00,meteohub,2013-02-11 13:07:00,
2013-02-11 07:12:00,58.8,55.9,30.08,NE,53,6.0,10.0,90,0.00,,,0.00,meteohub,2013-02-11 13:12:00,
2013-02-11 07:17:00,58.8,55.9,30.08,NE,44,9.0,10.0,90,0.00,,,0.00,meteohub,2013-02-11 13:17:00,
2013-02-11 07:22:00,58.8,55.9,30.07,North,5,5.0,14.0,90,0.00,,,0.00,meteohub,2013-02-11 13:22:00,
2013-02-11 07:27:00,59.0,55.8,30.06,NNE,32,3.0,14.0,89,0.00,,,0.00,meteohub,2013-02-11 13:27:00,
2013-02-11 07:32:00,58.8,55.0,30.07,NNE,30,8.0,14.0,87,0.00,,,0.00,meteohub,2013-02-11 13:32:00,
2013-02-11 07:37:00,59.0,55.2,30.07,NE,38,5.0,20.0,87,0.00,,,0.00,meteohub,2013-02-11 13:37:00,
2013-02-11 07:42:00,59.0,55.2,30.07,NNE,17,4.0,20.0,87,0.00,,,0.00,meteohub,2013-02-11 13:42:00,
2013-02-11 07:47:00,59.0,55.2,30.08,NNE,26,5.0,20.0,87,0.00,,,0.00,meteohub,2013-02-11 13:47:00,
2013-02-11 07:52:00,59.0,55.2,30.09,North,0,6.0,16.0,87,0.00,,,0.00,meteohub,2013-02-11 13:52:00,
2013-02-11 07:57:00,59.0,55.4,30.09,NNE,28,7.0,11.0,88,0.00,,,0.00,meteohub,2013-02-11 13:57:00,
2013-02-11 08:02:00,59.2,55.6,30.10,North,349,6.0,11.0,88,0.00,,,0.00,meteohub,2013-02-11 14:02:00,
2013-02-11 08:07:00,59.2,55.6,30.11,NNE,13,6.0,11.0,88,0.00,,,0.00,meteohub,2013-02-11 14:07:00,
2013-02-11 08:12:00,59.2,55.6,30.12,North,350,10.0,15.0,88,0.00,,,0.00,meteohub,2013-02-11 14:12:00,
2013-02-11 08:17:00,59.2,55.6,30.11,NNW,337,8.0,15.0,88,0.00,,,0.00,meteohub,2013-02-11 14:17:00,
2013-02-11 08:22:00,59.0,55.4,30.11,NNW,335,7.0,15.0,88,0.00,,,0.00,meteohub,2013-02-11 14:22:00,
2013-02-11 08:26:00,58.6,55.0,30.11,North,355,4.0,17.0,88,0.00,,,0.00,meteohub,2013-02-11 14:26:00,
2013-02-11 08:32:00,58.5,55.2,30.10,North,0,7.0,17.0,89,0.00,,,0.00,meteohub,2013-02-11 14:32:00,
2013-02-11 08:37:00,58.3,55.0,30.10,North,349,6.0,14.0,89,0.00,,,0.00,meteohub,2013-02-11 14:37:00,
2013-02-11 08:42:00,58.1,54.9,30.10,NNW,346,10.0,14.0,89,0.00,,,0.00,meteohub,2013-02-11 14:42:00,
2013-02-11 08:47:00,58.1,54.9,30.10,North,5,7.0,15.0,89,0.00,,,0.00,meteohub,2013-02-11 14:47:00,
2013-02-11 08:52:00,57.9,55.0,30.10,NNE,15,3.0,15.0,90,0.00,,,0.00,meteohub,2013-02-11 14:52:00,
2013-02-11 08:57:00,57.7,54.9,30.10,North,11,8.0,15.0,90,0.00,,,0.00,meteohub,2013-02-11 14:57:00,
2013-02-11 09:02:00,57.7,54.5,30.11,NE,49,13.0,13.0,89,0.00,,,0.00,meteohub,2013-02-11 15:02:00,
2013-02-11 09:07:00,57.9,53.8,30.11,ENE,58,8.0,17.0,86,0.00,,,0.00,meteohub,2013-02-11 15:07:00,
2013-02-11 09:12:00,57.7,53.6,30.11,North,9,4.0,17.0,86,0.00,,,0.00,meteohub,2013-02-11 15:12:00,
2013-02-11 09:17:00,57.7,54.0,30.11,North,5,11.0,18.0,87,0.00,,,0.00,meteohub,2013-02-11 15:17:00,
2013-02-11 09:22:00,57.6,53.8,30.10,NE,43,8.0,18.0,87,0.00,,,0.00,meteohub,2013-02-11 15:22:00,
2013-02-11 09:27:00,57.6,53.8,30.10,ENE,69,1.0,15.0,87,0.00,,,0.00,meteohub,2013-02-11 15:27:00,
2013-02-11 09:32:00,57.6,53.8,30.11,NE,53,8.0,15.0,87,0.00,,,0.00,meteohub,2013-02-11 15:32:00,
2013-02-11 09:37:00,57.4,53.6,30.11,ENE,59,5.0,15.0,87,0.00,,,0.00,meteohub,2013-02-11 15:37:00,
2013-02-11 09:42:00,57.4,53.6,30.10,NNE,26,8.0,15.0,87,0.00,,,0.00,meteohub,2013-02-11 15:42:00,
2013-02-11 09:47:00,57.4,53.6,30.11,NE,48,7.0,15.0,87,0.00,,,0.00,meteohub,2013-02-11 15:47:00,
2013-02-11 09:52:00,57.4,53.8,30.12,ENE,75,3.0,15.0,88,0.00,,,0.00,meteohub,2013-02-11 15:52:00,
2013-02-11 09:57:00,57.4,53.8,30.11,NNE,24,7.0,14.0,88,0.00,,,0.00,meteohub,2013-02-11 15:57:00,
2013-02-11 10:02:00,57.0,53.8,30.11,NE,43,6.0,13.0,89,0.00,,,0.00,meteohub,2013-02-11 16:02:00,
2013-02-11 10:07:00,56.7,53.8,30.12,NNW,345,3.0,14.0,90,0.00,,,0.00,meteohub,2013-02-11 16:07:00,
2013-02-11 10:12:00,56.5,54.0,30.12,NNE,30,3.0,14.0,91,0.00,,,0.00,meteohub,2013-02-11 16:12:00,
2013-02-11 10:17:00,56.1,53.6,30.11,NNW,342,4.0,10.0,91,0.00,,,0.00,meteohub,2013-02-11 16:17:00,
2013-02-11 10:22:00,56.1,53.6,30.12,North,355,7.0,12.0,91,0.00,,,0.00,meteohub,2013-02-11 16:22:00,
2013-02-11 10:27:00,55.9,53.6,30.11,NNE,22,8.0,12.0,92,0.00,,,0.00,meteohub,2013-02-11 16:27:00,
2013-02-11 10:32:00,55.9,53.4,30.11,NE,43,13.0,14.0,91,0.00,,,0.00,meteohub,2013-02-11 16:32:00,
2013-02-11 10:37:00,55.8,53.2,30.11,NE,34,6.0,14.0,91,0.00,,,0.00,meteohub,2013-02-11 16:37:00,
2013-02-11 10:42:00,55.8,53.2,30.11,ENE,63,2.0,14.0,91,0.00,,,0.00,meteohub,2013-02-11 16:42:00,
2013-02-11 10:47:00,55.8,53.2,30.12,NNE,21,0.0,13.0,91,0.00,,,0.00,meteohub,2013-02-11 16:47:00,
2013-02-11 10:52:00,55.8,53.2,30.12,NNE,22,3.0,10.0,91,0.00,,,0.00,meteohub,2013-02-11 16:52:00,
2013-02-11 10:57:00,55.8,53.2,30.13,NW,323,8.0,10.0,91,0.00,,,0.00,meteohub,2013-02-11 16:57:00,
2013-02-11 11:02:00,55.8,53.2,30.13,NNW,340,5.0,14.0,91,0.00,,,0.00,meteohub,2013-02-11 17:02:00,
2013-02-11 11:07:00,55.8,53.2,30.13,North,11,3.0,14.0,91,0.00,,,0.00,meteohub,2013-02-11 17:07:00,
2013-02-11 11:12:00,55.8,53.4,30.13,NNE,13,4.0,14.0,92,0.00,,,0.00,meteohub,2013-02-11 17:12:00,
2013-02-11 11:17:00,55.6,53.2,30.12,NNE,25,4.0,11.0,92,0.00,,,0.00,meteohub,2013-02-11 17:17:00,
2013-02-11 11:22:00,55.4,53.4,30.11,NNE,22,3.0,11.0,93,0.00,,,0.00,meteohub,2013-02-11 17:22:00,
2013-02-11 11:27:00,55.2,53.2,30.11,North,5,6.0,11.0,93,0.00,,,0.00,meteohub,2013-02-11 17:27:00,
2013-02-11 11:32:00,55.2,53.2,30.10,NNE,23,5.0,10.0,93,0.00,,,0.00,meteohub,2013-02-11 17:32:00,
2013-02-11 11:37:00,55.2,53.2,30.09,NE,40,8.0,13.0,93,0.00,,,0.00,meteohub,2013-02-11 17:37:00,
2013-02-11 11:42:00,55.2,53.6,30.08,ENE,63,10.0,13.0,94,0.00,,,0.00,meteohub,2013-02-11 17:42:00,
2013-02-11 11:47:00,55.2,53.6,30.09,NNE,33,3.0,16.0,94,0.00,,,0.00,meteohub,2013-02-11 17:47:00,
2013-02-11 11:52:00,55.2,53.6,30.09,NNE,28,12.0,16.0,94,0.00,,,0.00,meteohub,2013-02-11 17:52:00,
2013-02-11 11:57:00,55.4,53.8,30.09,NE,49,7.0,16.0,94,0.00,,,0.00,meteohub,2013-02-11 17:57:00,
2013-02-11 12:02:00,55.4,53.4,30.09,NE,51,9.0,12.0,93,0.00,,,0.00,meteohub,2013-02-11 18:02:00,
2013-02-11 12:07:00,55.4,53.8,30.10,NNW,341,4.0,13.0,94,0.00,,,0.00,meteohub,2013-02-11 18:07:00,
2013-02-11 12:12:00,55.6,53.6,30.10,North,5,6.0,13.0,93,0.00,,,0.00,meteohub,2013-02-11 18:12:00,
2013-02-11 12:17:00,55.6,54.0,30.09,NW,325,2.0,13.0,94,0.00,,,0.00,meteohub,2013-02-11 18:17:00,
2013-02-11 12:22:00,55.6,54.0,30.10,NE,43,10.0,11.0,94,0.00,,,0.00,meteohub,2013-02-11 18:22:00,
2013-02-11 12:27:00,55.6,53.6,30.08,ENE,71,5.0,11.0,93,0.00,,,0.00,meteohub,2013-02-11 18:27:00,
2013-02-11 12:32:00,55.6,54.0,30.08,ESE,113,4.0,14.0,94,0.00,,,0.00,meteohub,2013-02-11 18:32:00,
2013-02-11 12:37:00,55.6,54.0,30.09,ENE,63,0.0,14.0,94,0.00,,,0.00,meteohub,2013-02-11 18:37:00,
2013-02-11 12:42:00,55.6,54.0,30.07,ENE,61,8.0,14.0,94,0.00,,,0.00,meteohub,2013-02-11 18:42:00,
2013-02-11 12:47:00,55.6,54.0,30.06,East,100,7.0,9.0,94,0.00,,,0.00,meteohub,2013-02-11 18:47:00,
2013-02-11 12:52:00,55.8,54.1,30.06,ESE,113,5.0,12.0,94,0.00,,,0.00,meteohub,2013-02-11 18:52:00,
2013-02-11 12:57:00,55.8,54.1,30.05,East,90,2.0,12.0,94,0.00,,,0.00,meteohub,2013-02-11 18:57:00,
2013-02-11 13:02:00,55.8,54.1,30.04,East,93,7.0,13.0,94,0.00,,,0.00,meteohub,2013-02-11 19:02:00,
2013-02-11 13:07:00,55.9,54.3,30.04,ENE,75,2.0,13.0,94,0.00,,,0.00,meteohub,2013-02-11 19:07:00,
2013-02-11 13:12:00,56.1,54.5,30.04,ENE,57,7.0,13.0,94,0.00,,,0.00,meteohub,2013-02-11 19:12:00,
2013-02-11 13:17:00,56.1,54.5,30.04,ENE,74,4.0,12.0,94,0.00,,,0.00,meteohub,2013-02-11 19:17:00,
2013-02-11 13:21:00,56.3,54.7,30.04,East,96,8.0,11.0,94,0.00,,,0.00,meteohub,2013-02-11 19:21:00,
2013-02-11 13:26:00,56.5,54.9,30.04,East,80,7.0,9.0,94,0.00,,,0.00,meteohub,2013-02-11 19:26:00,
2013-02-11 13:32:00,56.7,55.0,30.03,East,88,2.0,9.0,94,0.00,,,0.00,meteohub,2013-02-11 19:32:00,
2013-02-11 13:37:00,56.7,55.0,30.02,East,100,3.0,9.0,94,0.00,,,0.00,meteohub,2013-02-11 19:37:00,
2013-02-11 13:42:00,56.8,55.2,30.02,ENE,61,7.0,10.0,94,0.00,,,0.00,meteohub,2013-02-11 19:42:00,
2013-02-11 13:47:00,56.8,54.9,30.02,East,90,6.0,10.0,93,0.00,,,0.00,meteohub,2013-02-11 19:47:00,
2013-02-11 13:52:00,57.2,55.2,30.02,ENE,65,1.0,10.0,93,0.00,,,0.00,meteohub,2013-02-11 19:52:00,
2013-02-11 13:57:00,57.2,55.2,30.02,ENE,69,3.0,9.0,93,0.00,,,0.00,meteohub,2013-02-11 19:57:00,
2013-02-11 14:02:00,57.4,55.4,30.02,ENE,78,3.0,11.0,93,0.00,,,0.00,meteohub,2013-02-11 20:02:00,
2013-02-11 14:07:00,57.4,55.4,30.01,ENE,69,4.0,11.0,93,0.00,,,0.00,meteohub,2013-02-11 20:07:00,
2013-02-11 14:12:00,57.4,55.4,30.02,ENE,69,3.0,11.0,93,0.00,,,0.00,meteohub,2013-02-11 20:12:00,
2013-02-11 14:17:00,57.4,55.4,30.02,East,97,1.0,11.0,93,0.00,,,0.00,meteohub,2013-02-11 20:17:00,
2013-02-11 14:22:00,57.6,55.6,30.02,ENE,73,3.0,10.0,93,0.00,,,0.00,meteohub,2013-02-11 20:22:00,
2013-02-11 14:27:00,57.6,55.6,30.02,NE,43,3.0,9.0,93,0.00,,,0.00,meteohub,2013-02-11 20:27:00,
2013-02-11 14:32:00,57.4,55.4,30.03,North,11,6.0,8.0,93,0.00,,,0.00,meteohub,2013-02-11 20:32:00,
2013-02-11 14:37:00,57.6,55.6,30.03,North,349,7.0,9.0,93,0.00,,,0.00,meteohub,2013-02-11 20:37:00,
2013-02-11 14:42:00,57.6,55.6,30.03,ENE,68,5.0,12.0,93,0.00,,,0.00,meteohub,2013-02-11 20:42:00,
2013-02-11 14:47:00,57.6,55.6,30.05,ESE,122,0.0,13.0,93,0.00,,,0.00,meteohub,2013-02-11 20:47:00,
2013-02-11 14:52:00,57.6,55.6,30.03,NNE,29,6.0,13.0,93,0.00,,,0.00,meteohub,2013-02-11 20:52:00,
2013-02-11 14:57:00,57.4,55.4,30.04,ENE,78,2.0,9.0,93,0.00,,,0.00,meteohub,2013-02-11 20:57:00,
2013-02-11 15:02:00,57.0,55.0,30.04,NE,53,4.0,9.0,93,0.00,,,0.00,meteohub,2013-02-11 21:02:00,
2013-02-11 15:07:00,56.8,55.2,30.04,ENE,62,0.0,9.0,94,0.00,,,0.00,meteohub,2013-02-11 21:07:00,
2013-02-11 15:12:00,56.8,55.2,30.04,ENE,67,3.0,9.0,94,0.00,,,0.00,meteohub,2013-02-11 21:12:00,
2013-02-11 15:17:00,56.8,55.2,30.03,NE,46,6.0,7.0,94,0.00,,,0.00,meteohub,2013-02-11 21:17:00,
2013-02-11 15:22:00,56.7,55.2,30.03,ENE,61,2.0,9.0,95,0.00,,,0.00,meteohub,2013-02-11 21:22:00,
2013-02-11 15:27:00,56.7,55.2,30.04,NE,53,3.0,9.0,95,0.00,,,0.00,meteohub,2013-02-11 21:27:00,
2013-02-11 15:32:00,56.7,55.2,30.04,NE,53,0.0,9.0,95,0.00,,,0.00,meteohub,2013-02-11 21:32:00,
2013-02-11 15:37:00,56.7,55.2,30.04,NE,48,3.0,8.0,95,0.00,,,0.00,meteohub,2013-02-11 21:37:00,
2013-02-11 15:42:00,56.7,55.2,30.04,North,355,5.0,7.0,95,0.00,,,0.00,meteohub,2013-02-11 21:42:00,
2013-02-11 15:47:00,56.7,55.2,30.04,North,0,5.0,7.0,95,0.00,,,0.00,meteohub,2013-02-11 21:47:00,
2013-02-11 15:52:00,56.7,55.6,30.04,NE,40,2.0,7.0,96,0.00,,,0.00,meteohub,2013-02-11 21:52:00,
2013-02-11 15:57:00,56.7,55.6,30.04,NE,46,0.0,8.0,96,0.00,,,0.00,meteohub,2013-02-11 21:57:00,
2013-02-11 16:02:00,56.7,55.6,30.04,NE,34,3.0,8.0,96,0.00,,,0.00,meteohub,2013-02-11 22:02:00,
2013-02-11 16:07:00,56.7,55.6,30.04,NE,34,1.0,8.0,96,0.00,,,0.00,meteohub,2013-02-11 22:07:00,
2013-02-11 16:12:00,56.5,55.4,30.03,NE,49,1.0,6.0,96,0.00,,,0.00,meteohub,2013-02-11 22:12:00,
2013-02-11 16:17:00,56.5,55.4,30.03,ENE,60,5.0,5.0,96,0.00,,,0.00,meteohub,2013-02-11 22:17:00,
2013-02-11 16:22:00,56.5,55.4,30.04,ENE,57,0.0,8.0,96,0.00,,,0.00,meteohub,2013-02-11 22:22:00,
2013-02-11 16:27:00,56.5,55.4,30.04,North,0,3.0,8.0,96,0.00,,,0.00,meteohub,2013-02-11 22:27:00,
2013-02-11 16:32:00,56.5,55.4,30.04,NNE,28,3.0,8.0,96,0.00,,,0.00,meteohub,2013-02-11 22:32:00,
2013-02-11 16:37:00,56.5,55.4,30.04,NE,36,2.0,6.0,96,0.00,,,0.00,meteohub,2013-02-11 22:37:00,
2013-02-11 16:42:00,56.5,55.4,30.04,NE,36,0.0,6.0,96,0.00,,,0.00,meteohub,2013-02-11 22:42:00,
2013-02-11 16:47:00,56.5,55.4,30.03,ENE,71,4.0,6.0,96,0.00,,,0.00,meteohub,2013-02-11 22:47:00,
2013-02-11 16:52:00,56.5,55.4,30.03,ENE,70,3.0,9.0,96,0.00,,,0.00,meteohub,2013-02-11 22:52:00,
2013-02-11 16:57:00,56.5,55.4,30.04,ENE,65,0.0,9.0,96,0.00,,,0.00,meteohub,2013-02-11 22:57:00,
2013-02-11 17:02:00,56.5,55.4,30.03,ENE,65,2.0,9.0,96,0.00,,,0.00,meteohub,2013-02-11 23:02:00,
2013-02-11 17:07:00,56.5,55.4,30.03,ENE,70,3.0,9.0,96,0.00,,,0.00,meteohub,2013-02-11 23:07:00,
2013-02-11 17:12:00,56.5,55.4,30.02,East,90,0.0,8.0,96,0.00,,,0.00,meteohub,2013-02-11 23:12:00,
2013-02-11 17:17:00,56.5,55.4,30.02,East,84,2.0,8.0,96,0.00,,,0.00,meteohub,2013-02-11 23:17:00,
2013-02-11 17:22:00,56.7,55.6,30.02,ENE,78,7.0,9.0,96,0.00,,,0.00,meteohub,2013-02-11 23:22:00,
2013-02-11 17:27:00,56.7,55.6,30.02,East,94,5.0,9.0,96,0.00,,,0.00,meteohub,2013-02-11 23:27:00,
2013-02-11 17:32:00,56.7,55.6,30.03,East,90,2.0,9.0,96,0.00,,,0.00,meteohub,2013-02-11 23:32:00,
2013-02-11 17:37:00,56.7,55.6,30.04,East,90,0.0,8.0,96,0.00,,,0.00,meteohub,2013-02-11 23:37:00,
2013-02-11 17:42:00,56.7,55.6,30.04,East,90,2.0,8.0,96,0.00,,,0.00,meteohub,2013-02-11 23:42:00,
2013-02-11 17:47:00,56.7,55.6,30.04,NE,35,3.0,5.0,96,0.00,,,0.00,meteohub,2013-02-11 23:47:00,
2013-02-11 17:52:00,56.7,55.6,30.04,NE,53,4.0,5.0,96,0.00,,,0.00,meteohub,2013-02-11 23:52:00,
2013-02-11 17:57:00,56.7,55.6,30.04,NE,40,1.0,7.0,96,0.00,,,0.00,meteohub,2013-02-11 23:57:00,
2013-02-11 18:02:00,56.7,55.6,30.04,ENE,71,2.0,7.0,96,0.00,,,0.00,meteohub,2013-02-12 00:02:00,
2013-02-11 18:07:00,56.7,55.6,30.04,NE,43,5.0,7.0,96,0.00,,,0.00,meteohub,2013-02-12 00:07:00,
2013-02-11 18:12:00,56.8,55.8,30.05,ENE,57,4.0,7.0,96,0.00,,,0.00,meteohub,2013-02-12 00:12:00,
2013-02-11 18:17:00,56.8,55.8,30.04,NE,48,2.0,8.0,96,0.00,,,0.00,meteohub,2013-02-12 00:17:00,
2013-02-11 18:22:00,56.8,55.8,30.05,North,355,2.0,8.0,96,0.00,,,0.00,meteohub,2013-02-12 00:22:00,
2013-02-11 18:27:00,56.8,55.8,30.04,ENE,58,3.0,8.0,96,0.00,,,0.00,meteohub,2013-02-12 00:27:00,
2013-02-11 18:32:00,56.8,55.8,30.04,North,5,8.0,8.0,96,0.00,,,0.00,meteohub,2013-02-12 00:32:00,
2013-02-11 18:37:00,56.8,55.8,30.05,NE,37,5.0,10.0,96,0.00,,,0.00,meteohub,2013-02-12 00:37:00,
2013-02-11 18:42:00,56.7,55.6,30.04,NE,39,5.0,10.0,96,0.00,,,0.00,meteohub,2013-02-12 00:42:00,
2013-02-11 18:47:00,56.7,55.6,30.05,NNE,25,5.0,11.0,96,0.00,,,0.00,meteohub,2013-02-12 00:47:00,
2013-02-11 18:52:00,56.7,55.6,30.05,NNE,24,2.0,11.0,96,0.00,,,0.00,meteohub,2013-02-12 00:52:00,
2013-02-11 18:57:00,56.7,55.6,30.04,NE,36,5.0,11.0,96,0.00,,,0.00,meteohub,2013-02-12 00:57:00,
2013-02-11 19:02:00,56.5,55.4,30.04,NNE,16,7.0,10.0,96,0.00,,,0.00,meteohub,2013-02-12 01:02:00,
2013-02-11 19:07:00,56.5,55.4,30.04,NE,36,3.0,10.0,96,0.00,,,0.00,meteohub,2013-02-12 01:07:00,
2013-02-11 19:12:00,56.5,55.4,30.04,NNE,32,4.0,9.0,96,0.00,,,0.00,meteohub,2013-02-12 01:12:00,
2013-02-11 19:17:00,56.5,55.4,30.04,North,355,1.0,9.0,96,0.00,,,0.00,meteohub,2013-02-12 01:17:00,
2013-02-11 19:22:00,56.5,55.4,30.04,NE,34,4.0,8.0,96,0.00,,,0.00,meteohub,2013-02-12 01:22:00,
2013-02-11 19:27:00,56.5,55.4,30.04,NNE,23,4.0,11.0,96,0.00,,,0.00,meteohub,2013-02-12 01:27:00,
2013-02-11 19:32:00,56.5,55.4,30.04,ENE,58,7.0,11.0,96,0.00,,,0.00,meteohub,2013-02-12 01:32:00,
2013-02-11 19:37:00,56.5,55.6,30.04,East,92,7.0,11.0,97,0.00,,,0.00,meteohub,2013-02-12 01:37:00,
2013-02-11 19:42:00,56.3,55.4,30.04,NE,43,5.0,11.0,97,0.00,,,0.00,meteohub,2013-02-12 01:42:00,
2013-02-11 19:47:00,56.3,55.4,30.04,ENE,63,5.0,11.0,97,0.00,,,0.00,meteohub,2013-02-12 01:47:00,
2013-02-11 19:52:00,56.1,55.2,30.04,ENE,61,7.0,11.0,97,0.00,,,0.00,meteohub,2013-02-12 01:52:00,
2013-02-11 19:57:00,56.1,55.2,30.04,ENE,65,4.0,8.0,97,0.00,,,0.00,meteohub,2013-02-12 01:57:00,
2013-02-11 20:02:00,56.3,55.4,30.04,NE,39,9.0,9.0,97,0.00,,,0.00,meteohub,2013-02-12 02:02:00,
2013-02-11 20:07:00,56.3,55.4,30.04,NE,42,3.0,13.0,97,0.00,,,0.00,meteohub,2013-02-12 02:07:00,
2013-02-11 20:12:00,56.3,55.4,30.04,ENE,58,3.0,13.0,97,0.00,,,0.00,meteohub,2013-02-12 02:12:00,
2013-02-11 20:17:00,56.3,55.4,30.05,NNE,30,7.0,13.0,97,0.00,,,0.00,meteohub,2013-02-12 02:17:00,
2013-02-11 20:22:00,56.5,55.6,30.06,NNW,340,5.0,9.0,97,0.00,,,0.00,meteohub,2013-02-12 02:22:00,
2013-02-11 20:27:00,56.5,55.4,30.06,North,350,3.0,8.0,96,0.00,,,0.00,meteohub,2013-02-12 02:27:00,
2013-02-11 20:32:00,56.5,55.4,30.05,NNE,26,2.0,8.0,96,0.00,,,0.00,meteohub,2013-02-12 02:32:00,
2013-02-11 20:37:00,56.5,55.4,30.05,NE,40,4.0,10.0,96,0.00,,,0.00,meteohub,2013-02-12 02:37:00,
2013-02-11 20:42:00,56.5,55.4,30.05,NE,44,5.0,10.0,96,0.00,,,0.00,meteohub,2013-02-12 02:42:00,
2013-02-11 20:47:00,56.5,55.4,30.05,NE,38,7.0,10.0,96,0.00,,,0.00,meteohub,2013-02-12 02:47:00,
2013-02-11 20:52:00,56.3,55.2,30.04,NNE,32,4.0,9.0,96,0.00,,,0.00,meteohub,2013-02-12 02:52:00,
2013-02-11 20:57:00,56.1,55.0,30.04,North,5,5.0,11.0,96,0.00,,,0.00,meteohub,2013-02-12 02:57:00,
2013-02-11 21:02:00,56.1,55.0,30.04,NE,42,6.0,11.0,96,0.00,,,0.00,meteohub,2013-02-12 03:02:00,
2013-02-11 21:07:00,56.1,55.0,30.04,NE,56,3.0,11.0,96,0.00,,,0.00,meteohub,2013-02-12 03:07:00,
2013-02-11 21:12:00,56.1,55.0,30.04,NNE,32,7.0,10.0,96,0.00,,,0.00,meteohub,2013-02-12 03:12:00,
2013-02-11 21:17:00,56.1,55.0,30.04,NE,55,7.0,10.0,96,0.00,,,0.00,meteohub,2013-02-12 03:17:00,
2013-02-11 21:22:00,56.1,55.0,30.04,NNE,23,3.0,10.0,96,0.00,,,0.00,meteohub,2013-02-12 03:22:00,
2013-02-11 21:27:00,56.1,55.0,30.04,NE,34,5.0,10.0,96,0.00,,,0.00,meteohub,2013-02-12 03:27:00,
2013-02-11 21:32:00,56.1,55.0,30.04,NE,35,6.0,11.0,96,0.00,,,0.00,meteohub,2013-02-12 03:32:00,
2013-02-11 21:37:00,56.1,55.0,30.03,NE,54,3.0,11.0,96,0.00,,,0.00,meteohub,2013-02-12 03:37:00,
2013-02-11 21:42:00,56.1,55.0,30.03,NE,50,3.0,11.0,96,0.00,,,0.00,meteohub,2013-02-12 03:42:00,
2013-02-11 21:47:00,56.1,55.0,30.02,NE,45,5.0,11.0,96,0.00,,,0.00,meteohub,2013-02-12 03:47:00,
2013-02-11 21:52:00,56.1,55.0,30.03,NNE,31,6.0,13.0,96,0.00,,,0.00,meteohub,2013-02-12 03:52:00,
2013-02-11 21:57:00,56.1,55.0,30.04,NE,43,5.0,13.0,96,0.00,,,0.00,meteohub,2013-02-12 03:57:00,
2013-02-11 22:02:00,56.1,55.0,30.03,NNE,21,5.0,12.0,96,0.00,,,0.00,meteohub,2013-02-12 04:02:00,
2013-02-11 22:07:00,56.1,55.0,30.02,NNE,29,8.0,10.0,96,0.00,,,0.00,meteohub,2013-02-12 04:07:00,
2013-02-11 22:11:00,56.1,55.0,30.02,NE,45,3.0,10.0,96,0.00,,,0.00,meteohub,2013-02-12 04:11:00,
2013-02-11 22:16:00,56.1,55.0,30.02,NE,37,9.0,10.0,96,0.00,,,0.00,meteohub,2013-02-12 04:16:00,
2013-02-11 22:21:00,56.1,55.0,30.01,NNE,32,9.0,10.0,96,0.00,,,0.00,meteohub,2013-02-12 04:21:00,
2013-02-11 22:26:00,56.1,55.0,29.99,East,86,8.0,15.0,96,0.00,,,0.00,meteohub,2013-02-12 04:26:00,
2013-02-11 22:32:00,56.1,55.0,30.01,North,355,5.0,15.0,96,0.00,,,0.00,meteohub,2013-02-12 04:32:00,
2013-02-11 22:37:00,56.1,55.0,30.02,ENE,71,4.0,15.0,96,0.00,,,0.00,meteohub,2013-02-12 04:37:00,
2013-02-11 22:42:00,56.1,55.0,30.01,NE,38,4.0,13.0,96,0.00,,,0.00,meteohub,2013-02-12 04:42:00,
2013-02-11 22:47:00,56.1,55.0,30.02,NE,51,7.0,13.0,96,0.00,,,0.00,meteohub,2013-02-12 04:47:00,
2013-02-11 22:52:00,56.1,55.0,30.02,NE,47,5.0,15.0,96,0.00,,,0.00,meteohub,2013-02-12 04:52:00,
2013-02-11 22:56:00,56.1,55.0,30.01,NNE,24,6.0,15.0,96,0.00,,,0.00,meteohub,2013-02-12 04:56:00,
2013-02-11 23:00:00,56.1,55.0,30.02,ENE,69,3.0,15.0,96,0.00,,,0.00,meteohub,2013-02-12 05:00:00,
2013-02-11 23:05:00,56.3,54.9,30.00,NE,42,6.0,11.0,95,0.00,,,0.00,meteohub,2013-02-12 05:05:00,
2013-02-11 23:10:00,56.3,54.9,30.03,NE,35,5.0,14.0,95,0.00,,,0.00,meteohub,2013-02-12 05:10:00,
2013-02-11 23:15:00,56.3,54.9,30.00,ENE,63,9.0,14.0,95,0.00,,,0.00,meteohub,2013-02-12 05:15:00,
2013-02-11 23:16:00,56.3,54.9,30.00,ENE,77,11.0,14.0,95,0.00,,,0.00,meteohub,2013-02-12 05:16:00,
2013-02-11 23:22:00,56.1,55.0,30.01,NNE,13,4.0,15.0,96,0.00,,,0.00,meteohub,2013-02-12 05:22:00,
2013-02-11 23:27:00,56.1,55.0,30.04,NW,323,14.0,15.0,96,0.00,,,0.00,meteohub,2013-02-12 05:27:00,
2013-02-11 23:32:00,56.1,55.0,30.07,NW,314,10.0,15.0,96,0.00,,,0.00,meteohub,2013-02-12 05:32:00,
2013-02-11 23:37:00,56.1,55.0,30.03,ENE,61,10.0,18.0,96,0.00,,,0.00,meteohub,2013-02-12 05:37:00,
2013-02-11 23:42:00,56.1,55.0,30.05,NNE,18,12.0,18.0,96,0.00,,,0.00,meteohub,2013-02-12 05:42:00,
2013-02-11 23:47:00,56.1,55.0,30.04,NNE,24,4.0,18.0,96,0.00,,,0.00,meteohub,2013-02-12 05:47:00,
2013-02-11 23:52:00,56.1,55.0,30.00,East,82,5.0,16.0,96,0.00,,,0.00,meteohub,2013-02-12 05:52:00,
2013-02-11 23:57:00,55.9,54.9,30.02,NNW,330,5.0,13.0,96,0.00,,,0.00,meteohub,2013-02-12 05:57:00,